Time;durP1;ratioP1;P1;durP2;ratioP2;P2;SDS_P1;SDS_P2;PMS_P1;PMS_P2;Temp;Humidity;BMP_temperature;BMP_pressure;BME280_temperature;BME280_humidity;BME280_pressure;Samples;Min_cycle;Max_cycle;Signal;HPM_P1;HPM_P2
2023/09/21 00:00:59;;;;;;;;;;;;;;;21.70;47.11;99813.06;3148422;28;20015;-64
2023/09/21 00:02:31;;;;;;;;;;;;;;;21.69;47.16;99814.03;3152522;28;19928;-64
2023/09/21 00:04:01;;;;;;;;;;;;;;;21.69;47.34;99814.88;3152656;28;19928;-64
2023/09/21 00:05:35;;;;;;;;;;;;;;;21.67;47.30;99810.69;3152042;28;20016;-65
2023/09/21 00:07:06;;;;;;;;;;;;;;;21.65;47.32;99818.78;3152341;28;19932;-64
2023/09/21 00:08:38;;;;;;;;;;;;;;;21.63;47.22;99814.59;3152520;28;19928;-65
2023/09/21 00:10:09;;;;;;;;;;;;;;;21.61;47.47;99812.06;3152491;28;19928;-64
2023/09/21 00:11:42;;;;;;;;;;;;;;;21.57;47.40;99816.81;3152403;28;19927;-64
2023/09/21 00:13:12;;;;;;;;;;;;;;;21.51;47.71;99812.09;3152163;28;19938;-65
2023/09/21 00:14:44;;;;;;;;;;;;;;;21.49;47.64;99813.19;3147883;28;19967;-65
2023/09/21 00:16:16;;;;;;;;;;;;;;;21.47;47.53;99818.63;3152098;28;19932;-65
2023/09/21 00:17:51;;;;;;;;;;;;;;;21.46;47.62;99816.13;3152341;28;19935;-64
2023/09/21 00:19:23;;;;;;;;;;;;;;;21.47;47.59;99813.31;3152037;28;19934;-65
2023/09/21 00:20:56;;;;;;;;;;;;;;;21.47;47.50;99817.78;3152300;28;19935;-64
2023/09/21 00:22:28;;;;;;;;;;;;;;;21.46;47.61;99818.78;3152414;28;19971;-65
2023/09/21 00:23:59;;;;;;;;;;;;;;;21.40;47.82;99812.22;3152457;28;19928;-64
2023/09/21 00:25:30;;;;;;;;;;;;;;;21.35;47.87;99809.97;3151971;28;20731;-64
2023/09/21 00:27:02;;;;;;;;;;;;;;;21.33;47.98;99808.44;3152464;28;20019;-65
2023/09/21 00:28:33;;;;;;;;;;;;;;;21.32;48.23;99809.38;3152227;28;20054;-66
2023/09/21 00:30:05;;;;;;;;;;;;;;;21.28;48.20;99808.81;3152084;28;19955;-65
2023/09/21 00:31:37;;;;;;;;;;;;;;;21.28;48.13;99808.00;3146242;28;19928;-66
2023/09/21 00:33:08;;;;;;;;;;;;;;;21.27;48.07;99809.81;3140197;28;19928;-66
2023/09/21 00:34:39;;;;;;;;;;;;;;;21.27;48.18;99807.16;3151372;28;19928;-66
2023/09/21 00:36:13;;;;;;;;;;;;;;;21.24;48.28;99807.44;3151994;28;19932;-66
2023/09/21 00:37:44;;;;;;;;;;;;;;;21.25;48.14;99803.81;3151842;28;20393;-66
2023/09/21 00:39:17;;;;;;;;;;;;;;;21.24;48.20;99807.44;3152233;28;19988;-66
2023/09/21 00:40:48;;;;;;;;;;;;;;;21.22;48.33;99808.53;3152455;28;20403;-66
2023/09/21 00:42:19;;;;;;;;;;;;;;;21.18;48.29;99815.94;3152125;28;19928;-66
2023/09/21 00:43:50;;;;;;;;;;;;;;;21.14;48.69;99812.69;3151144;28;19934;-66
2023/09/21 00:45:22;;;;;;;;;;;;;;;21.09;48.92;99812.28;3151888;28;19928;-66
2023/09/21 00:46:53;;;;;;;;;;;;;;;21.05;49.06;99808.22;3152254;28;20196;-66
2023/09/21 00:48:26;;;;;;;;;;;;;;;21.01;49.25;99811.28;3152324;28;20496;-66
2023/09/21 00:49:57;;;;;;;;;;;;;;;20.96;49.27;99813.50;3151943;28;19935;-66
2023/09/21 00:51:30;;;;;;;;;;;;;;;20.92;49.37;99810.28;3152416;28;19955;-66
2023/09/21 00:53:01;;;;;;;;;;;;;;;20.88;49.50;99808.88;3152448;28;19927;-66
2023/09/21 00:54:32;;;;;;;;;;;;;;;20.85;49.54;99810.00;3151954;28;19928;-66
2023/09/21 00:56:04;;;;;;;;;;;;;;;20.83;49.25;99805.81;3152089;28;19932;-66
2023/09/21 00:57:36;;;;;;;;;;;;;;;20.80;49.62;99806.09;3145933;28;19928;-66
2023/09/21 00:59:08;;;;;;;;;;;;;;;20.77;49.55;99807.19;3152330;28;20324;-65
2023/09/21 01:00:39;;;;;;;;;;;;;;;20.75;49.55;99809.13;3147697;28;20200;-65
2023/09/21 01:02:11;;;;;;;;;;;;;;;20.68;49.79;99800.88;3152289;28;20397;-65
2023/09/21 01:03:43;;;;;;;;;;;;;;;20.64;49.84;99799.47;3151994;28;20389;-66
2023/09/21 01:05:14;;;;;;;;;;;;;;;20.64;49.60;99802.09;3153469;28;19985;-66
2023/09/21 01:06:47;;;;;;;;;;;;;;;20.64;49.58;99798.63;3154217;28;20471;-66
2023/09/21 01:08:20;;;;;;;;;;;;;;;20.63;49.63;99804.91;3154369;28;19928;-66
2023/09/21 01:09:52;;;;;;;;;;;;;;;20.60;49.77;99805.16;3154364;28;19928;-66
2023/09/21 01:11:23;;;;;;;;;;;;;;;20.59;49.63;99803.50;3153963;28;20014;-66
2023/09/21 01:12:55;;;;;;;;;;;;;;;20.59;49.63;99803.50;3154230;28;20268;-67
2023/09/21 01:14:27;;;;;;;;;;;;;;;20.56;49.96;99803.78;3154362;28;19928;-66
2023/09/21 01:15:59;;;;;;;;;;;;;;;20.54;49.89;99808.34;3153926;28;20397;-65
2023/09/21 01:17:30;;;;;;;;;;;;;;;20.51;49.86;99804.13;3154312;28;19993;-66
2023/09/21 01:19:02;;;;;;;;;;;;;;;20.51;49.72;99806.78;3154232;28;20042;-66
2023/09/21 01:20:32;;;;;;;;;;;;;;;20.49;49.84;99799.94;3153920;28;20018;-66
2023/09/21 01:22:11;;;;;;;;;;;;;;;20.48;49.80;99806.22;3154279;28;20428;-66
2023/09/21 01:23:45;;;;;;;;;;;;;;;20.46;49.77;99814.25;3153992;28;19932;-66
2023/09/21 01:25:17;;;;;;;;;;;;;;;20.44;49.84;99811.75;3153871;28;19928;-66
2023/09/21 01:26:48;;;;;;;;;;;;;;;20.41;50.08;99806.75;3154255;28;20564;-66
2023/09/21 01:28:19;;;;;;;;;;;;;;;20.38;50.10;99808.78;3153944;28;19928;-66
2023/09/21 01:29:52;;;;;;;;;;;;;;;20.38;49.97;99811.44;3154144;28;19928;-66
2023/09/21 01:31:23;;;;;;;;;;;;;;;20.38;49.91;99806.13;3149855;28;19928;-66
2023/09/21 01:32:54;;;;;;;;;;;;;;;20.38;50.01;99806.13;3153240;28;20457;-66
2023/09/21 01:34:26;;;;;;;;;;;;;;;20.37;50.01;99812.41;3153469;28;19928;-66
2023/09/21 01:35:56;;;;;;;;;;;;;;;20.37;49.83;99809.75;3153280;28;20409;-66
2023/09/21 01:37:29;;;;;;;;;;;;;;;20.35;50.00;99801.97;3154059;28;20037;-66
2023/09/21 01:39:07;;;;;;;;;;;;;;;20.35;49.95;99806.41;3154308;28;19975;-66
2023/09/21 01:40:38;;;;;;;;;;;;;;;20.35;49.85;99801.97;3153768;28;20012;-65
2023/09/21 01:42:10;;;;;;;;;;;;;;;20.36;50.10;99802.81;3153659;28;19974;-65
2023/09/21 01:43:40;;;;;;;;;;;;;;;20.37;49.99;99809.75;3154115;28;19939;-65
2023/09/21 01:45:16;;;;;;;;;;;;;;;20.34;50.12;99810.88;3153674;28;20064;-65
2023/09/21 01:46:48;;;;;;;;;;;;;;;20.35;50.06;99807.25;3153528;28;19982;-65
2023/09/21 01:48:18;;;;;;;;;;;;;;;20.34;50.00;99807.38;3153860;28;19977;-65
2023/09/21 01:49:50;;;;;;;;;;;;;;;20.31;50.18;99802.34;3153634;28;20015;-65
2023/09/21 01:51:21;;;;;;;;;;;;;;;20.31;50.04;99811.13;3153755;28;19981;-65
2023/09/21 01:52:52;;;;;;;;;;;;;;;20.30;50.33;99812.09;3153978;28;19984;-65
2023/09/21 01:54:27;;;;;;;;;;;;;;;20.30;50.11;99816.56;3153727;28;19936;-65
2023/09/21 01:55:58;;;;;;;;;;;;;;;20.30;50.20;99814.75;3153584;28;19934;-65
2023/09/21 01:57:29;;;;;;;;;;;;;;;20.28;50.26;99811.38;3144242;28;20049;-65
2023/09/21 01:59:01;;;;;;;;;;;;;;;20.23;50.44;99809.16;3153805;28;20065;-65
2023/09/21 02:00:34;;;;;;;;;;;;;;;20.20;50.62;99808.56;3149129;28;19928;-65
2023/09/21 02:02:06;;;;;;;;;;;;;;;20.14;51.02;99799.38;3154195;28;19964;-66
2023/09/21 02:03:37;;;;;;;;;;;;;;;20.07;51.42;99803.47;3153677;28;20603;-66
2023/09/21 02:05:12;;;;;;;;;;;;;;;20.02;51.52;99802.19;3152980;28;19928;-66
2023/09/21 02:06:44;;;;;;;;;;;;;;;19.98;51.47;99804.25;3153940;28;19981;-66
2023/09/21 02:08:17;;;;;;;;;;;;;;;19.95;51.59;99792.13;3153360;28;19932;-67
2023/09/21 02:09:50;;;;;;;;;;;;;;;19.94;51.39;99789.63;3153645;28;19985;-67
2023/09/21 02:11:21;;;;;;;;;;;;;;;19.92;51.49;99792.41;3153507;28;19928;-66
2023/09/21 02:12:56;;;;;;;;;;;;;;;19.93;51.46;99791.41;3153262;28;19928;-67
2023/09/21 02:14:27;;;;;;;;;;;;;;;19.94;51.33;99793.13;3153907;28;19947;-67
2023/09/21 02:15:58;;;;;;;;;;;;;;;19.93;51.49;99796.69;3153068;28;20324;-67
2023/09/21 02:17:29;;;;;;;;;;;;;;;19.91;51.35;99793.38;3153264;28;19992;-67
2023/09/21 02:19:01;;;;;;;;;;;;;;;19.92;51.47;99795.03;3153534;28;19940;-67
2023/09/21 02:20:34;;;;;;;;;;;;;;;19.90;51.60;99790.84;3153427;28;19971;-66
2023/09/21 02:22:07;;;;;;;;;;;;;;;19.87;51.73;99802.50;3153305;28;19928;-66
2023/09/21 02:23:40;;;;;;;;;;;;;;;19.86;51.74;99795.56;3153383;28;20391;-67
2023/09/21 02:25:13;;;;;;;;;;;;;;;19.86;51.68;99795.56;3153180;28;19967;-67
2023/09/21 02:26:45;;;;;;;;;;;;;;;19.87;51.73;99791.09;3153578;28;19934;-65
2023/09/21 02:28:17;;;;;;;;;;;;;;;19.88;51.54;99803.38;3153330;28;19928;-66
2023/09/21 02:29:47;;;;;;;;;;;;;;;19.85;51.87;99799.19;3141256;28;19935;-66
2023/09/21 02:31:21;;;;;;;;;;;;;;;19.83;51.96;99797.63;3149717;28;20384;-66
2023/09/21 02:32:53;;;;;;;;;;;;;;;19.79;52.06;99794.41;3152126;28;19928;-66
2023/09/21 02:34:25;;;;;;;;;;;;;;;19.77;52.17;99794.53;3153213;28;19940;-66
2023/09/21 02:35:55;;;;;;;;;;;;;;;19.76;52.27;99794.66;3152726;28;19928;-67
2023/09/21 02:37:28;;;;;;;;;;;;;;;19.74;52.37;99802.72;3153333;28;19966;-67
2023/09/21 02:38:59;;;;;;;;;;;;;;;19.72;52.31;99801.16;3153181;28;19928;-67
2023/09/21 02:40:32;;;;;;;;;;;;;;;19.71;52.37;99805.59;3153233;28;19928;-67
2023/09/21 02:42:04;;;;;;;;;;;;;;;19.70;52.59;99803.94;3153144;28;19932;-67
2023/09/21 02:43:35;;;;;;;;;;;;;;;19.68;52.56;99803.22;3153543;28;19928;-67
2023/09/21 02:45:08;;;;;;;;;;;;;;;19.66;52.67;99804.31;3152928;28;20317;-67
2023/09/21 02:46:41;;;;;;;;;;;;;;;19.65;52.52;99807.94;3152816;28;19974;-67
2023/09/21 02:48:12;;;;;;;;;;;;;;;19.65;52.49;99806.13;3153257;28;20015;-67
2023/09/21 02:49:43;;;;;;;;;;;;;;;19.65;52.48;99805.28;3153235;28;19936;-67
2023/09/21 02:51:15;;;;;;;;;;;;;;;19.62;52.89;99798.41;3152972;28;20392;-67
2023/09/21 02:52:47;;;;;;;;;;;;;;;19.59;52.94;99798.66;3153018;28;20013;-67
2023/09/21 02:54:18;;;;;;;;;;;;;;;19.58;53.00;99802.28;3153353;28;20321;-67
2023/09/21 02:55:51;;;;;;;;;;;;;;;19.59;52.93;99793.38;3153189;28;19928;-66
2023/09/21 02:57:23;;;;;;;;;;;;;;;19.60;52.91;99800.34;3143884;28;19928;-67
2023/09/21 02:58:54;;;;;;;;;;;;;;;19.61;52.96;99801.16;3152060;28;19932;-66
2023/09/21 03:00:34;;;;;;;;;;;;;;;19.61;52.93;99804.69;3148641;28;19935;-69
2023/09/21 03:02:09;;;;;;;;;;;;;;;19.62;52.83;99793.13;3152873;28;19928;-68
2023/09/21 03:03:40;;;;;;;;;;;;;;;19.64;52.66;99808.84;3153096;28;19932;-69
2023/09/21 03:05:13;;;;;;;;;;;;;;;19.63;52.60;99800.06;3153110;28;19954;-68
2023/09/21 03:06:45;;;;;;;;;;;;;;;19.64;53.09;99811.47;3153282;28;19928;-69
2023/09/21 03:08:18;;;;;;;;;;;;;;;19.61;53.29;99811.72;3152545;28;19934;-68
2023/09/21 03:09:57;;;;;;;;;;;;;;;19.60;53.33;99821.47;3153609;28;19928;-68
2023/09/21 03:11:30;;;;;;;;;;;;;;;19.58;53.52;99820.78;3153775;28;19928;-68
2023/09/21 03:13:01;;;;;;;;;;;;;;;19.58;53.33;99819.91;3158231;28;19997;-68
2023/09/21 03:14:32;;;;;;;;;;;;;;;19.58;53.43;99823.41;3157914;28;20441;-69
2023/09/21 03:16:10;;;;;;;;;;;;;;;19.60;53.31;99829.38;3158032;28;19924;-68
2023/09/21 03:17:41;;;;;;;;;;;;;;;19.59;53.40;99827.72;3157793;28;19928;-69
2023/09/21 03:19:13;;;;;;;;;;;;;;;19.60;53.55;99832.03;3157937;28;19931;-68
2023/09/21 03:20:45;;;;;;;;;;;;;;;19.62;53.31;99826.63;3158075;28;19932;-67
2023/09/21 03:22:17;;;;;;;;;;;;;;;19.64;53.38;99832.63;3158191;28;19982;-67
2023/09/21 03:23:52;;;;;;;;;;;;;;;19.64;53.26;99836.13;3157548;28;19924;-67
2023/09/21 03:25:28;;;;;;;;;;;;;;;19.64;53.40;99828.19;3158013;28;19946;-67
2023/09/21 03:27:01;;;;;;;;;;;;;;;19.66;53.13;99828.09;3157049;28;19954;-67
2023/09/21 03:28:34;;;;;;;;;;;;;;;19.66;53.22;99826.28;3157768;28;20069;-67
2023/09/21 03:30:06;;;;;;;;;;;;;;;19.66;53.21;99821.00;3158065;28;19931;-67
2023/09/21 03:31:37;;;;;;;;;;;;;;;19.68;53.27;99823.53;3152456;28;19936;-67
2023/09/21 03:33:09;;;;;;;;;;;;;;;19.68;53.21;99829.63;3158299;28;19924;-67
2023/09/21 03:34:43;;;;;;;;;;;;;;;19.68;53.19;99821.72;3152649;28;19928;-67
2023/09/21 03:36:13;;;;;;;;;;;;;;;19.68;53.14;99824.34;3157711;28;19959;-67
2023/09/21 03:37:47;;;;;;;;;;;;;;;19.67;53.35;99833.25;3158162;28;19924;-67
2023/09/21 03:39:19;;;;;;;;;;;;;;;19.67;53.28;99830.63;3157480;28;20011;-66
2023/09/21 03:40:51;;;;;;;;;;;;;;;19.68;53.27;99827.00;3157449;28;19928;-66
2023/09/21 03:42:23;;;;;;;;;;;;;;;19.69;53.35;99823.38;3158029;28;19969;-66
2023/09/21 03:43:55;;;;;;;;;;;;;;;19.69;53.29;99827.81;3157855;28;19966;-66
2023/09/21 03:45:25;;;;;;;;;;;;;;;19.68;53.42;99832.28;3157753;28;20000;-66
2023/09/21 03:46:57;;;;;;;;;;;;;;;19.66;53.50;99828.91;3157932;28;19928;-67
2023/09/21 03:48:28;;;;;;;;;;;;;;;19.66;53.49;99831.56;3157836;28;19977;-67
2023/09/21 03:50:00;;;;;;;;;;;;;;;19.66;53.42;99822.81;3155991;28;20419;-68
2023/09/21 03:51:33;;;;;;;;;;;;;;;19.66;53.40;99821.00;3157470;28;19924;-65
2023/09/21 03:53:04;;;;;;;;;;;;;;;19.66;53.38;99823.63;3152979;28;19932;-64
2023/09/21 03:54:36;;;;;;;;;;;;;;;19.68;53.22;99821.72;3157651;28;19927;-64
2023/09/21 03:56:07;;;;;;;;;;;;;;;19.69;53.29;99831.31;3154479;28;19928;-63
2023/09/21 03:57:40;;;;;;;;;;;;;;;19.71;53.28;99824.09;3154087;28;19924;-66
2023/09/21 03:59:11;;;;;;;;;;;;;;;19.72;53.21;99820.47;3157576;28;19925;-67
2023/09/21 04:00:42;;;;;;;;;;;;;;;19.72;53.40;99828.41;3153415;28;19928;-67
2023/09/21 04:02:13;;;;;;;;;;;;;;;19.70;53.35;99825.06;3146021;28;19985;-69
2023/09/21 04:03:45;;;;;;;;;;;;;;;19.68;53.61;99823.53;3156309;28;19932;-72
2023/09/21 04:05:18;;;;;;;;;;;;;;;19.66;53.67;99826.28;3157173;28;19931;-65
2023/09/21 04:06:50;;;;;;;;;;;;;;;19.65;53.73;99827.25;3157789;28;19928;-67
2023/09/21 04:08:22;;;;;;;;;;;;;;;19.61;54.28;99819.66;3157113;28;19947;-67
2023/09/21 04:09:52;;;;;;;;;;;;;;;19.59;54.38;99817.16;3154561;28;20313;-74
2023/09/21 04:11:26;;;;;;;;;;;;;;;19.60;54.50;99823.28;3157436;28;19934;-74
2023/09/21 04:12:59;;;;;;;;;;;;;;;19.62;54.07;99826.63;3157567;28;19928;-69
2023/09/21 04:14:30;;;;;;;;;;;;;;;19.63;54.04;99826.50;3157604;28;19924;-72
2023/09/21 04:16:03;;;;;;;;;;;;;;;19.65;53.99;99821.13;3157108;28;19977;-77
2023/09/21 04:17:35;;;;;;;;;;;;;;;19.66;53.94;99825.44;3157519;28;20064;-79
2023/09/21 04:19:10;;;;;;;;;;;;;;;19.67;53.73;99827.97;3157662;28;19963;-71
2023/09/21 04:20:44;;;;;;;;;;;;;;;19.69;53.86;99823.38;3157461;28;20308;-71
2023/09/21 04:22:16;;;;;;;;;;;;;;;19.70;53.97;99827.72;3157204;28;20019;-77
2023/09/21 04:23:48;;;;;;;;;;;;;;;19.71;53.86;99829.38;3157339;28;19932;-70
2023/09/21 04:25:18;;;;;;;;;;;;;;;19.73;53.83;99827.47;3157406;28;20011;-68
2023/09/21 04:26:50;;;;;;;;;;;;;;;19.77;53.83;99834.16;3157390;28;20424;-68
2023/09/21 04:28:22;;;;;;;;;;;;;;;19.78;53.91;99835.00;3157413;28;19939;-70
2023/09/21 04:29:54;;;;;;;;;;;;;;;19.78;53.94;99835.00;3157707;28;20000;-79
2023/09/21 04:31:25;;;;;;;;;;;;;;;19.78;54.09;99837.63;3148714;28;20363;-73
2023/09/21 04:32:57;;;;;;;;;;;;;;;19.78;54.07;99835.81;3157456;28;20015;-73
2023/09/21 04:34:29;;;;;;;;;;;;;;;19.78;54.20;99835.00;3157511;28;20418;-79
2023/09/21 04:35:59;;;;;;;;;;;;;;;19.78;54.50;99841.09;3157350;28;19996;-72
2023/09/21 04:37:31;;;;;;;;;;;;;;;19.76;54.75;99827.22;3157545;28;20004;-67
2023/09/21 04:39:01;;;;;;;;;;;;;;;19.72;55.55;99830.22;3156888;28;20019;-77
2023/09/21 04:40:33;;;;;;;;;;;;;;;19.68;55.36;99824.34;3159782;28;19924;-76
2023/09/21 04:42:04;;;;;;;;;;;;;;;19.68;55.58;99829.63;3159796;28;19928;-75
2023/09/21 04:43:39;;;;;;;;;;;;;;;19.67;55.88;99822.69;3154673;28;19941;-72
2023/09/21 04:45:12;;;;;;;;;;;;;;;19.65;56.46;99821.13;3158871;28;20001;-72
2023/09/21 04:46:43;;;;;;;;;;;;;;;19.63;56.40;99823.03;3159878;28;20409;-74
2023/09/21 04:48:14;;;;;;;;;;;;;;;19.63;56.50;99826.50;3159922;28;19935;-74
2023/09/21 04:49:45;;;;;;;;;;;;;;;19.65;56.34;99815.84;3159667;28;19924;-75
2023/09/21 04:51:17;;;;;;;;;;;;;;;19.65;56.91;99821.97;3159517;28;19930;-75
2023/09/21 04:52:48;;;;;;;;;;;;;;;19.64;56.86;99822.91;3159650;28;19924;-76
2023/09/21 04:54:21;;;;;;;;;;;;;;;19.61;57.57;99817.88;3159486;28;20023;-79
2023/09/21 04:55:52;;;;;;;;;;;;;;;19.61;57.20;99828.44;3151515;28;19929;-73
2023/09/21 04:57:24;;;;;;;;;;;;;;;19.66;56.82;99818.34;3150583;28;20439;-73
2023/09/21 04:58:56;;;;;;;;;;;;;;;19.69;56.67;99826.03;3159961;28;20388;-72
2023/09/21 05:00:28;;;;;;;;;;;;;;;19.70;56.59;99821.56;3158849;28;20355;-72
2023/09/21 05:01:59;;;;;;;;;;;;;;;19.73;56.46;99822.19;3159431;28;20393;-72
2023/09/21 05:03:33;;;;;;;;;;;;;;;19.77;56.12;99826.22;3159617;28;19931;-81
2023/09/21 05:05:04;;;;;;;;;;;;;;;19.81;56.05;99824.16;3159684;28;19951;-83
2023/09/21 05:06:36;;;;;;;;;;;;;;;19.79;56.70;99826.13;3159576;28;20307;-76
2023/09/21 05:08:09;;;;;;;;;;;;;;;19.77;56.84;99826.22;3159614;28;19932;-76
2023/09/21 05:09:40;;;;;;;;;;;;;;;19.74;56.94;99829.13;3158735;28;19924;-77
2023/09/21 05:11:11;;;;;;;;;;;;;;;19.74;56.97;99821.19;3159124;28;20007;-77
2023/09/21 05:12:42;;;;;;;;;;;;;;;19.77;56.65;99822.75;3159316;28;19978;-77
2023/09/21 05:14:15;;;;;;;;;;;;;;;19.81;56.63;99821.53;3159121;28;19931;-77
2023/09/21 05:15:48;;;;;;;;;;;;;;;19.84;56.63;99823.06;3159166;28;19924;-76
2023/09/21 05:17:18;;;;;;;;;;;;;;;19.87;56.50;99823.66;3159167;28;20330;-75
2023/09/21 05:18:51;;;;;;;;;;;;;;;19.88;56.65;99817.41;3158691;28;19933;-77
2023/09/21 05:20:21;;;;;;;;;;;;;;;19.87;56.57;99817.53;3159814;28;19928;-73
2023/09/21 05:21:56;;;;;;;;;;;;;;;19.84;56.53;99823.91;3158542;28;19988;-74
2023/09/21 05:23:27;;;;;;;;;;;;;;;19.84;56.90;99823.91;3159138;28;20010;-74
2023/09/21 05:24:59;;;;;;;;;;;;;;;19.81;56.96;99823.34;3158059;28;19928;-74
2023/09/21 05:26:30;;;;;;;;;;;;;;;19.80;56.77;99829.59;3151116;28;19978;-75
2023/09/21 05:28:02;;;;;;;;;;;;;;;19.75;57.41;99836.06;3158858;28;20019;-76
2023/09/21 05:29:36;;;;;;;;;;;;;;;19.70;57.50;99829.50;3159406;28;19928;-75
2023/09/21 05:31:09;;;;;;;;;;;;;;;19.68;57.18;99834.91;3157254;28;19928;-77
2023/09/21 05:32:41;;;;;;;;;;;;;;;19.65;57.53;99834.34;3152764;28;19931;-76
2023/09/21 05:34:12;;;;;;;;;;;;;;;19.64;57.55;99833.47;3159886;28;19928;-81
2023/09/21 05:35:50;;;;;;;;;;;;;;;19.62;57.72;99834.56;3159840;28;19923;-76
2023/09/21 05:37:21;;;;;;;;;;;;;;;19.63;57.59;99837.06;3151341;28;19935;-81
2023/09/21 05:38:53;;;;;;;;;;;;;;;19.62;57.45;99840.69;3160030;28;20490;-83
2023/09/21 05:40:23;;;;;;;;;;;;;;;19.63;57.34;99847.63;3158813;28;19924;-76
2023/09/21 05:41:55;;;;;;;;;;;;;;;19.64;57.37;99849.31;3158670;28;19939;-76
2023/09/21 05:43:27;;;;;;;;;;;;;;;19.64;57.08;99851.97;3159259;28;19928;-82
2023/09/21 05:44:59;;;;;;;;;;;;;;;19.67;57.21;99856.16;3159112;28;19936;-82
2023/09/21 05:46:31;;;;;;;;;;;;;;;19.68;57.02;99853.41;3159360;28;20450;-78
2023/09/21 05:48:01;;;;;;;;;;;;;;;19.69;57.12;99849.81;3160417;28;20403;-78
2023/09/21 05:49:36;;;;;;;;;;;;;;;19.66;57.30;99844.78;3159798;28;19928;-76
2023/09/21 05:51:10;;;;;;;;;;;;;;;19.68;57.27;99848.13;3159658;28;19928;-81
2023/09/21 05:52:41;;;;;;;;;;;;;;;19.69;57.16;99852.44;3153314;28;19925;-76
2023/09/21 05:54:20;;;;;;;;;;;;;;;19.70;57.58;99853.28;3159647;28;19997;-77
2023/09/21 05:55:53;;;;;;;;;;;;;;;19.70;57.85;99856.78;3159264;28;19924;-74
2023/09/21 05:57:24;;;;;;;;;;;;;;;19.72;57.46;99862.75;3158718;28;20014;-74
2023/09/21 05:58:56;;;;;;;;;;;;;;;19.75;57.38;99853.75;3159432;28;20589;-76
2023/09/21 06:00:31;;;;;;;;;;;;;;;19.77;57.33;99865.88;3153452;28;19967;-76
2023/09/21 06:02:05;;;;;;;;;;;;;;;19.78;57.63;99867.53;3158416;28;19981;-73
2023/09/21 06:03:36;;;;;;;;;;;;;;;19.79;57.45;99863.13;3158895;28;19930;-77
2023/09/21 06:05:08;;;;;;;;;;;;;;;19.82;57.58;99872.56;3158494;28;19977;-77
2023/09/21 06:06:39;;;;;;;;;;;;;;;19.81;58.01;99866.44;3158525;28;19924;-78
2023/09/21 06:08:10;;;;;;;;;;;;;;;19.79;58.16;99857.81;3158817;28;19924;-79
2023/09/21 06:09:44;;;;;;;;;;;;;;;19.76;58.69;99856.28;3158644;28;19928;-84
2023/09/21 06:11:14;;;;;;;;;;;;;;;19.73;59.00;99853.88;3159105;28;19981;-77
2023/09/21 06:12:46;;;;;;;;;;;;;;;19.73;59.15;99853.88;3158359;28;19924;-71
2023/09/21 06:14:19;;;;;;;;;;;;;;;19.75;59.19;99862.50;3158706;28;20014;-71
2023/09/21 06:15:52;;;;;;;;;;;;;;;19.77;58.86;99863.22;3158035;28;20026;-74
2023/09/21 06:17:24;;;;;;;;;;;;;;;19.81;58.79;99857.69;3158156;28;19931;-74
2023/09/21 06:18:56;;;;;;;;;;;;;;;19.80;58.85;99859.50;3158388;28;20282;-76
2023/09/21 06:20:29;;;;;;;;;;;;;;;19.84;58.67;99860.06;3158446;28;19928;-78
2023/09/21 06:22:00;;;;;;;;;;;;;;;19.87;58.49;99863.28;3157985;28;19924;-77
2023/09/21 06:23:31;;;;;;;;;;;;;;;19.91;58.30;99851.53;3158454;28;20820;-75
2023/09/21 06:25:03;;;;;;;;;;;;;;;19.93;58.51;99857.50;3158768;28;19940;-73
2023/09/21 06:26:33;;;;;;;;;;;;;;;19.96;58.31;99861.69;3158614;28;20293;-76
2023/09/21 06:28:06;;;;;;;;;;;;;;;19.95;58.34;99860.84;3158381;28;19924;-75
2023/09/21 06:29:37;;;;;;;;;;;;;;;19.95;58.35;99855.56;3158909;28;20366;-77
2023/09/21 06:31:11;;;;;;;;;;;;;;;19.96;58.18;99859.03;3155154;28;19978;-73
2023/09/21 06:32:43;;;;;;;;;;;;;;;19.99;58.08;99853.50;3149859;28;19951;-73
2023/09/21 06:34:18;;;;;;;;;;;;;;;20.03;57.94;99857.59;3153314;28;19924;-77
2023/09/21 06:35:49;;;;;;;;;;;;;;;20.02;58.52;99860.34;3157871;28;19932;-76
2023/09/21 06:37:21;;;;;;;;;;;;;;;19.97;58.97;99856.28;3158532;28;20416;-77
2023/09/21 06:38:53;;;;;;;;;;;;;;;19.99;59.02;99864.94;3158696;28;19935;-76
2023/09/21 06:40:25;;;;;;;;;;;;;;;20.02;58.67;99861.19;3157263;28;19928;-75
2023/09/21 06:41:56;;;;;;;;;;;;;;;20.07;58.57;99856.34;3158582;28;19936;-77
2023/09/21 06:43:30;;;;;;;;;;;;;;;20.10;58.40;99856.09;3158388;28;20006;-76
2023/09/21 06:45:01;;;;;;;;;;;;;;;20.15;58.34;99853.06;3158398;28;19924;-76
2023/09/21 06:46:34;;;;;;;;;;;;;;;20.19;58.34;99862.41;3152622;28;19929;-78
2023/09/21 06:48:05;;;;;;;;;;;;;;;20.22;58.32;99857.69;3156950;28;20402;-72
2023/09/21 06:49:37;;;;;;;;;;;;;;;20.27;57.94;99853.84;3158438;28;20285;-77
2023/09/21 06:51:08;;;;;;;;;;;;;;;20.30;58.18;99857.06;3158602;28;19947;-75
2023/09/21 06:52:40;;;;;;;;;;;;;;;20.32;58.43;99857.78;3158194;28;19931;-83
2023/09/21 06:54:11;;;;;;;;;;;;;;;20.35;58.23;99854.88;3158701;28;19924;-84
2023/09/21 06:55:42;;;;;;;;;;;;;;;20.41;58.16;99858.81;3158210;28;19965;-73
2023/09/21 06:57:13;;;;;;;;;;;;;;;20.47;58.28;99863.56;3150881;28;20442;-77
2023/09/21 06:58:45;;;;;;;;;;;;;;;20.49;58.33;99855.50;3158575;28;19924;-76
2023/09/21 07:00:16;;;;;;;;;;;;;;;20.54;58.06;99859.44;3153854;28;20016;-73
2023/09/21 07:01:49;;;;;;;;;;;;;;;20.60;57.85;99861.56;3157914;28;19932;-76
2023/09/21 07:03:20;;;;;;;;;;;;;;;20.66;57.84;99863.69;3157962;28;19924;-76
2023/09/21 07:04:51;;;;;;;;;;;;;;;20.68;57.87;99867.03;3158187;28;19935;-73
2023/09/21 07:06:22;;;;;;;;;;;;;;;20.73;57.77;99869.28;3158202;28;19928;-74
2023/09/21 07:07:54;;;;;;;;;;;;;;;20.76;57.93;99868.19;3157930;28;20015;-78
2023/09/21 07:09:26;;;;;;;;;;;;;;;20.78;57.61;99860.94;3157393;28;19942;-73
2023/09/21 07:10:58;;;;;;;;;;;;;;;20.81;57.58;99860.69;3153278;28;20004;-75
2023/09/21 07:12:28;;;;;;;;;;;;;;;20.83;57.61;99856.94;3157773;28;19932;-76
2023/09/21 07:14:00;;;;;;;;;;;;;;;20.87;57.42;99866.28;3157590;28;19931;-78
2023/09/21 07:15:31;;;;;;;;;;;;;;;20.90;57.47;99859.88;3157457;28;19950;-84
2023/09/21 07:17:05;;;;;;;;;;;;;;;20.94;57.43;99861.31;3158206;28;20563;-84
2023/09/21 07:18:36;;;;;;;;;;;;;;;21.00;57.27;99865.19;3145337;28;19928;-82
2023/09/21 07:20:09;;;;;;;;;;;;;;;21.01;57.38;99862.44;3157494;28;19928;-76
2023/09/21 07:21:40;;;;;;;;;;;;;;;21.03;57.29;99864.94;3158167;28;19924;-80
2023/09/21 07:23:11;;;;;;;;;;;;;;;21.09;57.19;99861.78;3158117;28;19924;-77
2023/09/21 07:24:42;;;;;;;;;;;;;;;21.12;56.94;99859.69;3158309;28;19981;-78
2023/09/21 07:26:14;;;;;;;;;;;;;;;21.17;57.06;99861.06;3157990;28;20378;-77
2023/09/21 07:27:45;;;;;;;;;;;;;;;21.18;56.80;99862.75;3153878;28;20147;-75
2023/09/21 07:29:17;;;;;;;;;;;;;;;21.19;56.88;99870.56;3157773;28;19928;-77
2023/09/21 07:30:50;;;;;;;;;;;;;;;21.19;56.92;99872.38;3157413;28;19924;-80
2023/09/21 07:32:23;;;;;;;;;;;;;;;21.14;56.79;99872.78;3152255;28;19931;-77
2023/09/21 07:33:56;;;;;;;;;;;;;;;21.08;56.97;99866.19;3157425;28;20389;-80
2023/09/21 07:35:28;;;;;;;;;;;;;;;21.03;57.25;99871.09;3150255;28;19928;-77
2023/09/21 07:36:58;;;;;;;;;;;;;;;21.02;57.09;99865.91;3152157;28;19928;-75
2023/09/21 07:38:30;;;;;;;;;;;;;;;21.07;57.24;99876.94;3154689;28;21674;-76
2023/09/21 07:40:06;;;;;;;;;;;;;;;21.09;57.06;99875.84;3153806;28;20031;-78
2023/09/21 07:41:38;;;;;;;;;;;;;;;21.10;57.20;99872.22;3157567;28;19966;-79
2023/09/21 07:43:10;;;;;;;;;;;;;;;21.11;57.14;99868.56;3157591;28;19943;-72
2023/09/21 07:44:44;;;;;;;;;;;;;;;21.12;57.06;99872.09;3157744;28;20015;-79
2023/09/21 07:46:14;;;;;;;;;;;;;;;21.14;56.89;99878.06;3157389;28;19932;-73
2023/09/21 07:47:47;;;;;;;;;;;;;;;21.17;56.86;99876.97;3157540;28;19935;-81
2023/09/21 07:49:18;;;;;;;;;;;;;;;21.20;56.60;99882.00;3157595;28;20281;-78
2023/09/21 07:50:50;;;;;;;;;;;;;;;21.20;56.68;99876.69;3157853;28;19924;-74
2023/09/21 07:52:23;;;;;;;;;;;;;;;21.21;56.57;99873.91;3156836;28;19928;-75
2023/09/21 07:53:57;;;;;;;;;;;;;;;21.24;56.36;99878.94;3154969;28;19924;-73
2023/09/21 07:55:29;;;;;;;;;;;;;;;21.26;56.43;99869.03;3157210;28;19924;-75
2023/09/21 07:56:59;;;;;;;;;;;;;;;21.30;56.32;99877.56;3156983;28;20023;-83
2023/09/21 07:58:33;;;;;;;;;;;;;;;21.30;56.17;99867.81;3157685;28;19928;-73
2023/09/21 08:00:05;;;;;;;;;;;;;;;21.34;56.18;99863.06;3153219;28;19994;-71